Time;durP1;ratioP1;P1;durP2;ratioP2;P2;SDS_P1;SDS_P2;PMS_P1;PMS_P2;Temp;Humidity;BMP_temperature;BMP_pressure;BME280_temperature;BME280_humidity;BME280_pressure;Samples;Min_cycle;Max_cycle;Signal;HPM_P1;HPM_P2
2022/04/24 00:00:16;;;;;;;25.73;17.87;;;;;;;;;;5055870;28;20179;-83
2022/04/24 00:03:20;;;;;;;23.90;18.03;;;;;;;;;;5044548;28;20176;-83
2022/04/24 00:06:25;;;;;;;24.43;18.30;;;;;;;;;;5035350;28;20180;-83
2022/04/24 00:09:29;;;;;;;24.40;17.70;;;;;;;;;;5044958;28;20215;-86
2022/04/24 00:12:33;;;;;;;26.60;18.67;;;;;;;;;;5061898;28;20642;-83
2022/04/24 00:15:36;;;;;;;27.30;19.60;;;;;;;;;;5065528;28;20649;-83
2022/04/24 00:18:41;;;;;;;25.20;18.73;;;;;;;;;;5066914;28;20204;-83
2022/04/24 00:21:46;;;;;;;26.40;19.17;;;;;;;;;;5058432;28;20192;-83
2022/04/24 00:24:50;;;;;;;28.70;19.50;;;;;;;;;;5033236;28;20181;-86
2022/04/24 00:27:54;;;;;;;26.47;19.77;;;;;;;;;;5046450;28;20215;-83
2022/04/24 00:30:59;;;;;;;26.30;19.73;;;;;;;;;;5071449;28;20208;-85
2022/04/24 00:34:03;;;;;;;29.40;20.43;;;;;;;;;;5056388;28;20185;-85
2022/04/24 00:37:08;;;;;;;27.17;19.90;;;;;;;;;;5047336;28;20228;-83
2022/04/24 00:40:12;;;;;;;27.67;19.80;;;;;;;;;;5056871;28;20172;-83
2022/04/24 00:43:16;;;;;;;27.67;19.50;;;;;;;;;;5047356;28;20176;-83
2022/04/24 00:47:02;;;;;;;27.50;20.00;;;;;;;;;;5069296;28;20177;-86
2022/04/24 00:50:06;;;;;;;31.70;21.03;;;;;;;;;;5044094;28;20181;-85
2022/04/24 00:53:10;;;;;;;30.50;21.00;;;;;;;;;;5045708;28;20180;-85
2022/04/24 00:56:15;;;;;;;28.23;20.20;;;;;;;;;;5066075;28;20211;-85
2022/04/24 00:59:19;;;;;;;28.33;20.03;;;;;;;;;;5045686;28;20220;-85
2022/04/24 01:02:24;;;;;;;29.40;20.13;;;;;;;;;;5045568;28;20180;-85
2022/04/24 01:05:28;;;;;;;27.53;19.83;;;;;;;;;;5044368;28;20184;-86
2022/04/24 01:08:34;;;;;;;30.20;19.87;;;;;;;;;;5062799;28;20211;-86
2022/04/24 01:11:39;;;;;;;30.67;21.90;;;;;;;;;;5051538;28;20203;-86
2022/04/24 01:14:43;;;;;;;31.40;21.03;;;;;;;;;;5052629;28;20176;-86
2022/04/24 01:17:47;;;;;;;29.20;20.80;;;;;;;;;;5065848;28;20223;-85
2022/04/24 01:20:51;;;;;;;29.43;20.13;;;;;;;;;;5066296;28;20200;-86
2022/04/24 01:23:55;;;;;;;28.17;21.03;;;;;;;;;;5044290;28;20184;-83
2022/04/24 01:27:00;;;;;;;31.57;21.30;;;;;;;;;;5043623;28;20180;-85
2022/04/24 01:30:05;;;;;;;29.73;21.67;;;;;;;;;;5056314;28;20184;-83
2022/04/24 01:33:10;;;;;;;31.40;20.87;;;;;;;;;;5044930;28;20543;-84
2022/04/24 01:36:14;;;;;;;31.70;22.43;;;;;;;;;;5034799;28;20177;-85
2022/04/24 01:39:18;;;;;;;27.83;20.93;;;;;;;;;;5042869;28;20215;-84
2022/04/24 01:42:22;;;;;;;27.57;20.73;;;;;;;;;;5044329;28;20177;-86
2022/04/24 01:45:26;;;;;;;29.90;21.47;;;;;;;;;;5054089;28;20199;-83
2022/04/24 01:48:34;;;;;;;30.47;20.97;;;;;;;;;;5043503;28;20207;-83
2022/04/24 01:51:38;;;;;;;31.90;21.57;;;;;;;;;;5060334;28;20176;-83
2022/04/24 01:54:43;;;;;;;28.87;21.00;;;;;;;;;;5052584;28;20172;-83
2022/04/24 01:57:47;;;;;;;29.73;21.27;;;;;;;;;;5052180;28;20219;-85
2022/04/24 02:00:51;;;;;;;29.63;21.10;;;;;;;;;;5062834;28;20183;-85
2022/04/24 02:03:56;;;;;;;29.33;21.30;;;;;;;;;;5052084;28;20526;-85
2022/04/24 02:07:00;;;;;;;29.50;21.63;;;;;;;;;;5074289;28;20183;-85
2022/04/24 02:10:04;;;;;;;26.83;20.07;;;;;;;;;;5073961;28;20645;-85
2022/04/24 02:13:09;;;;;;;29.33;22.40;;;;;;;;;;5063445;28;20519;-85
2022/04/24 02:16:13;;;;;;;30.40;20.93;;;;;;;;;;5062679;28;20187;-85
2022/04/24 02:19:17;;;;;;;29.70;21.23;;;;;;;;;;5062918;28;20211;-85
2022/04/24 02:22:21;;;;;;;29.30;21.53;;;;;;;;;;5062404;28;20525;-85
2022/04/24 02:25:26;;;;;;;32.43;21.33;;;;;;;;;;5074089;28;20664;-86
2022/04/24 02:28:30;;;;;;;30.33;20.80;;;;;;;;;;5051549;28;20215;-85
2022/04/24 02:31:35;;;;;;;29.03;20.57;;;;;;;;;;5085729;28;20203;-85
2022/04/24 02:34:39;;;;;;;29.40;20.93;;;;;;;;;;5054062;28;20547;-86
2022/04/24 02:37:44;;;;;;;29.53;19.83;;;;;;;;;;5051682;28;20223;-85
2022/04/24 02:40:48;;;;;;;26.60;19.57;;;;;;;;;;5054018;28;20180;-85
2022/04/24 02:43:52;;;;;;;27.77;19.40;;;;;;;;;;5043011;28;20176;-85
2022/04/24 02:46:56;;;;;;;28.10;20.37;;;;;;;;;;5062295;28;20172;-85
2022/04/24 02:50:01;;;;;;;28.27;19.73;;;;;;;;;;5089769;28;20175;-85
2022/04/24 02:53:06;;;;;;;27.00;19.33;;;;;;;;;;5078974;28;20179;-86
2022/04/24 02:56:10;;;;;;;26.90;19.43;;;;;;;;;;5066650;28;20171;-84
2022/04/24 02:59:16;;;;;;;27.80;18.57;;;;;;;;;;5066175;28;20211;-85
2022/04/24 03:02:20;;;;;;;25.93;19.33;;;;;;;;;;5066432;28;20203;-85
2022/04/24 03:05:24;;;;;;;26.30;19.73;;;;;;;;;;5066884;28;20179;-86
2022/04/24 03:08:29;;;;;;;25.93;19.30;;;;;;;;;;5066536;28;20211;-85
2022/04/24 03:11:33;;;;;;;30.07;19.47;;;;;;;;;;5046108;28;20176;-85
2022/04/24 03:14:37;;;;;;;28.43;20.17;;;;;;;;;;5046788;28;20180;-85
2022/04/24 03:17:42;;;;;;;28.40;19.67;;;;;;;;;;5046418;28;20200;-85
2022/04/24 03:20:46;;;;;;;24.53;18.60;;;;;;;;;;5069302;28;20180;-85
2022/04/24 03:23:51;;;;;;;30.50;19.90;;;;;;;;;;5046368;28;20516;-85
2022/04/24 03:26:55;;;;;;;25.40;19.13;;;;;;;;;;5046537;28;20188;-86
2022/04/24 03:29:59;;;;;;;27.17;19.27;;;;;;;;;;5049361;28;20176;-83
2022/04/24 03:33:03;;;;;;;27.87;19.03;;;;;;;;;;5050440;28;20207;-83
2022/04/24 03:36:07;;;;;;;24.87;18.53;;;;;;;;;;5062252;28;20195;-83
2022/04/24 03:39:11;;;;;;;27.73;19.50;;;;;;;;;;5069503;28;20211;-83
2022/04/24 03:42:16;;;;;;;26.70;19.40;;;;;;;;;;5081077;28;20172;-83
2022/04/24 03:45:20;;;;;;;27.53;19.47;;;;;;;;;;5069848;28;20183;-83
2022/04/24 03:48:24;;;;;;;26.27;18.33;;;;;;;;;;5058013;28;20207;-83
2022/04/24 03:51:28;;;;;;;25.43;18.87;;;;;;;;;;5081415;28;20535;-83
2022/04/24 03:54:32;;;;;;;31.27;20.97;;;;;;;;;;5069228;28;20195;-83
2022/04/24 03:57:37;;;;;;;28.17;20.47;;;;;;;;;;5060668;28;20231;-83
2022/04/24 04:00:41;;;;;;;28.93;21.17;;;;;;;;;;5076507;28;20187;-83
2022/04/24 04:03:45;;;;;;;29.47;20.97;;;;;;;;;;5070703;28;20176;-83
2022/04/24 04:06:49;;;;;;;30.30;20.60;;;;;;;;;;5070259;28;20199;-83
2022/04/24 04:09:55;;;;;;;32.57;21.93;;;;;;;;;;5092983;28;20191;-83
2022/04/24 04:12:59;;;;;;;34.80;21.70;;;;;;;;;;5068951;28;20524;-83
2022/04/24 04:16:03;;;;;;;30.67;22.37;;;;;;;;;;5060549;28;20192;-83
2022/04/24 04:19:07;;;;;;;34.97;21.40;;;;;;;;;;5051044;28;20232;-83
2022/04/24 04:22:11;;;;;;;28.73;21.00;;;;;;;;;;5078142;28;20618;-85
2022/04/24 04:25:15;;;;;;;32.70;23.00;;;;;;;;;;5063997;28;20203;-85
2022/04/24 04:28:19;;;;;;;30.50;21.60;;;;;;;;;;5063887;28;20555;-85
2022/04/24 04:31:23;;;;;;;35.90;22.60;;;;;;;;;;5070157;28;20207;-86
2022/04/24 04:34:27;;;;;;;35.57;21.40;;;;;;;;;;5044843;28;20184;-83
2022/04/24 04:37:32;;;;;;;28.30;20.80;;;;;;;;;;5068878;28;20208;-83
2022/04/24 04:40:36;;;;;;;32.00;21.03;;;;;;;;;;5045107;28;20189;-83
2022/04/24 04:43:41;;;;;;;32.63;22.57;;;;;;;;;;5071016;28;20635;-86
2022/04/24 04:46:45;;;;;;;27.57;19.70;;;;;;;;;;5045374;28;20176;-84
2022/04/24 04:49:49;;;;;;;28.27;21.20;;;;;;;;;;5059734;28;20180;-83
2022/04/24 04:52:54;;;;;;;28.13;19.43;;;;;;;;;;5038183;28;20180;-83
2022/04/24 04:55:58;;;;;;;29.97;22.30;;;;;;;;;;5046196;28;20187;-83
2022/04/24 04:59:02;;;;;;;27.97;21.73;;;;;;;;;;5043835;28;20699;-83
2022/04/24 05:02:06;;;;;;;30.57;22.47;;;;;;;;;;5045804;28;20180;-83
2022/04/24 05:05:10;;;;;;;29.73;21.73;;;;;;;;;;5044071;28;20200;-86
2022/04/24 05:08:15;;;;;;;30.30;21.93;;;;;;;;;;5046307;28;20216;-85
2022/04/24 05:11:18;;;;;;;31.30;21.70;;;;;;;;;;5064137;28;20175;-83
2022/04/24 05:14:22;;;;;;;34.00;23.93;;;;;;;;;;5065452;28;20183;-86
2022/04/24 05:17:27;;;;;;;28.43;21.43;;;;;;;;;;5062918;28;20179;-87
2022/04/24 05:20:31;;;;;;;31.00;23.13;;;;;;;;;;5045025;28;20200;-83
2022/04/24 05:23:36;;;;;;;31.87;22.83;;;;;;;;;;5054568;28;20184;-85
2022/04/24 05:26:40;;;;;;;30.37;21.80;;;;;;;;;;5054812;28;20180;-86
2022/04/24 05:29:45;;;;;;;32.20;22.97;;;;;;;;;;5042498;28;20552;-86
2022/04/24 05:32:51;;;;;;;31.43;24.07;;;;;;;;;;5042841;28;20200;-84
2022/04/24 05:35:54;;;;;;;33.77;24.17;;;;;;;;;;5053900;28;20180;-86
2022/04/24 05:38:59;;;;;;;33.87;24.17;;;;;;;;;;5053904;28;20220;-84
2022/04/24 05:42:03;;;;;;;35.33;23.97;;;;;;;;;;5044928;28;20176;-83
2022/04/24 05:45:10;;;;;;;35.50;24.97;;;;;;;;;;5043346;28;20184;-86
2022/04/24 05:48:15;;;;;;;34.83;24.63;;;;;;;;;;5044240;28;20207;-84
2022/04/24 05:51:19;;;;;;;37.87;25.73;;;;;;;;;;5053114;28;20184;-84
2022/04/24 05:54:24;;;;;;;33.67;24.73;;;;;;;;;;5063375;28;20171;-85
2022/04/24 05:57:28;;;;;;;37.40;25.67;;;;;;;;;;5062701;28;20519;-84
2022/04/24 06:00:33;;;;;;;38.47;25.73;;;;;;;;;;5062130;28;20183;-86
2022/04/24 06:03:40;;;;;;;33.47;24.23;;;;;;;;;;5030957;28;20631;-84
2022/04/24 06:06:44;;;;;;;37.23;25.13;;;;;;;;;;5055367;28;20184;-84
2022/04/24 06:09:48;;;;;;;34.00;24.17;;;;;;;;;;5043440;28;20215;-84
2022/04/24 06:12:54;;;;;;;34.30;24.47;;;;;;;;;;5042889;28;20184;-86
2022/04/24 06:15:58;;;;;;;33.97;24.47;;;;;;;;;;5042054;28;20183;-86
2022/04/24 06:19:02;;;;;;;35.60;24.83;;;;;;;;;;5046983;28;20673;-85
2022/04/24 06:22:06;;;;;;;33.57;23.57;;;;;;;;;;5061892;28;20202;-86
2022/04/24 06:25:15;;;;;;;31.37;23.87;;;;;;;;;;5062464;28;20188;-85
2022/04/24 06:28:19;;;;;;;30.37;22.87;;;;;;;;;;5073986;28;20223;-86
2022/04/24 06:31:24;;;;;;;34.37;24.43;;;;;;;;;;5085743;28;20219;-86
2022/04/24 06:34:28;;;;;;;32.37;24.10;;;;;;;;;;5068330;28;20211;-86
2022/04/24 06:37:32;;;;;;;29.00;21.07;;;;;;;;;;5064463;28;20207;-84
2022/04/24 06:40:37;;;;;;;27.67;20.67;;;;;;;;;;5035620;28;20192;-83
2022/04/24 06:43:41;;;;;;;33.57;24.03;;;;;;;;;;5054229;28;20184;-86
2022/04/24 06:46:46;;;;;;;29.77;21.73;;;;;;;;;;5042704;28;20184;-84
2022/04/24 06:49:51;;;;;;;31.03;21.07;;;;;;;;;;5031743;28;20176;-83
2022/04/24 06:52:56;;;;;;;28.27;21.00;;;;;;;;;;5043547;28;20655;-84
2022/04/24 06:56:00;;;;;;;29.90;21.20;;;;;;;;;;5030773;28;20176;-86
2022/04/24 06:59:04;;;;;;;28.23;21.63;;;;;;;;;;5044711;28;20233;-83
2022/04/24 07:02:08;;;;;;;28.63;20.70;;;;;;;;;;5041359;28;20552;-86
2022/04/24 07:05:13;;;;;;;28.57;21.20;;;;;;;;;;5053465;28;20180;-84
2022/04/24 07:08:17;;;;;;;31.60;22.13;;;;;;;;;;5054864;28;20219;-83
2022/04/24 07:11:22;;;;;;;30.93;22.40;;;;;;;;;;5061603;28;20210;-85
2022/04/24 07:14:26;;;;;;;34.07;24.37;;;;;;;;;;5062327;28;20188;-85
2022/04/24 07:17:30;;;;;;;35.90;25.33;;;;;;;;;;5061696;28;20183;-86
2022/04/24 07:20:34;;;;;;;33.80;24.27;;;;;;;;;;5052195;28;20179;-86
2022/04/24 07:23:38;;;;;;;33.07;23.87;;;;;;;;;;5042267;28;20563;-85
2022/04/24 07:26:42;;;;;;;35.17;24.50;;;;;;;;;;5033141;28;20650;-86
2022/04/24 07:29:46;;;;;;;34.83;23.90;;;;;;;;;;5054544;28;20707;-84
2022/04/24 07:32:55;;;;;;;35.80;24.93;;;;;;;;;;5053728;28;20212;-84
2022/04/24 07:35:59;;;;;;;32.63;23.00;;;;;;;;;;5049037;28;20240;-83
2022/04/24 07:39:03;;;;;;;30.60;22.80;;;;;;;;;;5047589;28;20707;-86
2022/04/24 07:42:08;;;;;;;29.73;21.43;;;;;;;;;;5073934;28;20183;-83
2022/04/24 07:45:20;;;;;;;28.40;21.20;;;;;;;;;;5087091;28;20186;-83
2022/04/24 07:48:25;;;;;;;23.73;17.80;;;;;;;;;;5073948;28;20227;-86
2022/04/24 07:51:30;;;;;;;25.20;18.30;;;;;;;;;;5045363;28;20207;-83
2022/04/24 07:54:34;;;;;;;26.73;18.83;;;;;;;;;;5036271;28;20195;-86
2022/04/24 07:57:39;;;;;;;24.40;17.10;;;;;;;;;;5057968;28;20188;-86
2022/04/24 08:00:44;;;;;;;22.63;16.63;;;;;;;;;;5067096;28;20195;-83
2022/04/24 08:03:48;;;;;;;24.23;17.10;;;;;;;;;;5045479;28;20183;-84
2022/04/24 08:06:52;;;;;;;27.53;19.53;;;;;;;;;;5034246;28;20180;-88
2022/04/24 08:09:56;;;;;;;22.73;16.97;;;;;;;;;;5066366;28;20189;-84
2022/04/24 08:13:05;;;;;;;19.20;15.10;;;;;;;;;;5064299;28;20203;-86
2022/04/24 08:16:09;;;;;;;18.87;14.67;;;;;;;;;;5064404;28;20183;-87
2022/04/24 08:19:13;;;;;;;18.37;13.83;;;;;;;;;;5065621;28;20236;-85
2022/04/24 08:22:17;;;;;;;18.57;14.17;;;;;;;;;;5065634;28;20186;-84
2022/04/24 08:25:23;;;;;;;16.60;12.13;;;;;;;;;;5064977;28;20176;-84
2022/04/24 08:28:27;;;;;;;15.50;11.73;;;;;;;;;;5068875;28;20207;-84
2022/04/24 08:31:31;;;;;;;12.67;10.33;;;;;;;;;;5065873;28;20210;-86
2022/04/24 08:34:35;;;;;;;14.17;10.30;;;;;;;;;;5069770;28;20651;-84
2022/04/24 08:37:41;;;;;;;11.80;9.67;;;;;;;;;;5064936;28;20180;-84
2022/04/24 08:40:45;;;;;;;12.10;9.47;;;;;;;;;;5066934;28;20195;-86
2022/04/24 08:43:50;;;;;;;10.13;8.73;;;;;;;;;;5034032;28;20204;-84
2022/04/24 08:46:55;;;;;;;8.00;6.73;;;;;;;;;;5045578;28;20589;-86
2022/04/24 08:50:01;;;;;;;6.60;5.50;;;;;;;;;;5054832;28;20644;-87
2022/04/24 08:53:07;;;;;;;8.07;6.77;;;;;;;;;;5043502;28;20184;-86
2022/04/24 08:56:12;;;;;;;8.70;5.80;;;;;;;;;;5054764;28;20184;-86
2022/04/24 08:59:16;;;;;;;6.83;4.83;;;;;;;;;;5042595;28;20231;-87
2022/04/24 09:02:21;;;;;;;7.03;5.20;;;;;;;;;;5031677;28;20179;-87
2022/04/24 09:05:26;;;;;;;9.00;5.97;;;;;;;;;;5056623;28;20191;-87
2022/04/24 09:08:34;;;;;;;7.00;5.37;;;;;;;;;;5062171;28;20215;-86
2022/04/24 09:11:38;;;;;;;5.13;4.50;;;;;;;;;;5051209;28;20192;-87
2022/04/24 09:14:50;;;;;;;10.53;4.37;;;;;;;;;;5064097;28;20187;-86
2022/04/24 09:18:01;;;;;;;4.63;4.10;;;;;;;;;;5075175;28;20219;-87
2022/04/24 09:21:05;;;;;;;5.10;4.60;;;;;;;;;;5047877;28;20188;-86
2022/04/24 09:24:09;;;;;;;4.40;3.80;;;;;;;;;;5044989;28;20180;-87
2022/04/24 09:27:26;;;;;;;6.00;4.20;;;;;;;;;;5075296;28;20179;-84
2022/04/24 09:30:35;;;;;;;4.40;3.33;;;;;;;;;;5056652;28;20192;-84
2022/04/24 09:33:42;;;;;;;4.43;3.50;;;;;;;;;;5054343;28;20203;-86
2022/04/24 09:36:57;;;;;;;8.27;5.50;;;;;;;;;;5076986;28;20183;-84
2022/04/24 09:40:03;;;;;;;7.73;5.43;;;;;;;;;;5076203;28;20649;-84
2022/04/24 09:43:08;;;;;;;7.60;4.97;;;;;;;;;;5050404;28;20555;-86
2022/04/24 09:46:12;;;;;;;13.70;8.50;;;;;;;;;;5052875;28;20536;-86
2022/04/24 09:49:17;;;;;;;13.23;8.57;;;;;;;;;;5061886;28;20211;-86
2022/04/24 09:52:23;;;;;;;5.27;4.03;;;;;;;;;;5074306;28;20188;-86
2022/04/24 09:55:28;;;;;;;4.93;3.87;;;;;;;;;;5043311;28;20200;-84
2022/04/24 09:58:32;;;;;;;10.93;5.13;;;;;;;;;;5052600;28;20208;-88
2022/04/24 10:01:36;;;;;;;6.53;4.10;;;;;;;;;;5057732;28;20529;-86
2022/04/24 10:04:42;;;;;;;14.40;9.03;;;;;;;;;;5048638;28;20190;-87
2022/04/24 10:07:49;;;;;;;18.47;12.10;;;;;;;;;;5061545;28;20230;-87
2022/04/24 10:10:53;;;;;;;6.03;4.60;;;;;;;;;;5065750;28;20184;-84
2022/04/24 10:14:03;;;;;;;5.57;3.20;;;;;;;;;;5054487;28;20191;-84
2022/04/24 10:17:45;;;;;;;4.87;2.90;;;;;;;;;;5042838;28;20525;-86
2022/04/24 10:21:21;;;;;;;4.27;2.93;;;;;;;;;;5057220;28;20679;-86
2022/04/24 10:24:37;;;;;;;5.10;2.93;;;;;;;;;;5062218;28;20183;-86
2022/04/24 10:27:43;;;;;;;1.97;1.77;;;;;;;;;;5053959;28;20184;-84
2022/04/24 10:31:01;;;;;;;2.30;2.00;;;;;;;;;;5042938;28;20180;-87
2022/04/24 10:34:06;;;;;;;5.43;2.53;;;;;;;;;;5050212;28;20192;-84
2022/04/24 10:37:10;;;;;;;1.47;1.37;;;;;;;;;;5054080;28;20188;-84
2022/04/24 10:40:22;;;;;;;1.47;1.27;;;;;;;;;;5055347;28;20208;-85
2022/04/24 10:43:38;;;;;;;1.47;1.20;;;;;;;;;;5075311;28;20192;-84
2022/04/24 10:46:47;;;;;;;2.33;1.60;;;;;;;;;;5045774;28;20635;-84
2022/04/24 10:50:04;;;;;;;1.57;1.20;;;;;;;;;;5052587;28;20187;-87
2022/04/24 10:53:09;;;;;;;1.40;1.30;;;;;;;;;;5064641;28;20180;-84
2022/04/24 10:56:13;;;;;;;1.50;1.40;;;;;;;;;;5075008;28;20630;-84
2022/04/24 10:59:20;;;;;;;1.90;1.50;;;;;;;;;;5051382;28;20223;-87
2022/04/24 11:02:33;;;;;;;1.70;1.37;;;;;;;;;;5053133;28;20179;-84
2022/04/24 11:05:40;;;;;;;1.83;1.43;;;;;;;;;;5053608;28;20627;-84
2022/04/24 11:08:44;;;;;;;1.93;1.40;;;;;;;;;;5076800;28;20214;-87
2022/04/24 11:11:52;;;;;;;1.20;1.03;;;;;;;;;;5069385;28;20195;-84
2022/04/24 11:15:11;;;;;;;1.00;0.90;;;;;;;;;;5055410;28;20658;-87
2022/04/24 11:18:27;;;;;;;1.73;1.10;;;;;;;;;;5056200;28;20214;-86
2022/04/24 11:21:39;;;;;;;1.77;1.27;;;;;;;;;;5066810;28;20195;-83
2022/04/24 11:24:43;;;;;;;2.13;1.00;;;;;;;;;;5078049;28;20175;-86
2022/04/24 11:27:53;;;;;;;1.00;0.67;;;;;;;;;;5067369;28;20210;-87
2022/04/24 11:31:10;;;;;;;1.27;0.60;;;;;;;;;;5056880;28;20524;-84
2022/04/24 11:34:19;;;;;;;1.70;0.63;;;;;;;;;;5080236;28;20180;-84
2022/04/24 11:37:23;;;;;;;0.70;0.60;;;;;;;;;;5077916;28;20180;-84
2022/04/24 11:40:33;;;;;;;1.10;0.50;;;;;;;;;;5079649;28;20225;-86
2022/04/24 11:43:41;;;;;;;0.53;0.50;;;;;;;;;;5066322;28;20184;-83
2022/04/24 11:50:14;;;;;;;0.60;0.60;;;;;;;;;;5076608;28;20183;-86
2022/04/24 11:53:21;;;;;;;1.17;0.60;;;;;;;;;;5065489;28;20670;-87
2022/04/24 11:56:25;;;;;;;1.07;0.50;;;;;;;;;;5065393;28;20191;-84
2022/04/24 11:59:34;;;;;;;0.70;0.60;;;;;;;;;;5065229;28;20210;-86
2022/04/24 12:02:38;;;;;;;0.47;0.47;;;;;;;;;;5055095;28;20183;-84
2022/04/24 12:05:42;;;;;;;1.77;0.40;;;;;;;;;;5055764;28;20192;-84
2022/04/24 12:08:52;;;;;;;0.57;0.57;;;;;;;;;;5033800;28;20220;-84
2022/04/24 12:12:23;;;;;;;0.50;0.50;;;;;;;;;;5051412;28;20639;-83
2022/04/24 12:15:28;;;;;;;0.40;0.40;;;;;;;;;;5069798;28;20175;-84
2022/04/24 12:18:32;;;;;;;0.83;0.60;;;;;;;;;;5063530;28;20211;-87
2022/04/24 12:21:45;;;;;;;1.20;0.60;;;;;;;;;;5065852;28;20551;-86
2022/04/24 12:24:49;;;;;;;1.10;0.43;;;;;;;;;;5063746;28;20184;-86
2022/04/24 12:27:56;;;;;;;0.40;0.40;;;;;;;;;;5054762;28;20218;-84
2022/04/24 12:31:04;;;;;;;0.40;0.40;;;;;;;;;;5082647;28;20199;-84
2022/04/24 12:34:08;;;;;;;0.43;0.43;;;;;;;;;;5055343;28;20535;-87
2022/04/24 12:37:14;;;;;;;0.53;0.50;;;;;;;;;;5065291;28;20187;-83
2022/04/24 12:40:21;;;;;;;0.60;0.40;;;;;;;;;;5064390;28;20551;-87
2022/04/24 12:43:26;;;;;;;2.40;0.50;;;;;;;;;;5053087;28;20183;-86
2022/04/24 12:46:32;;;;;;;0.50;0.50;;;;;;;;;;5052797;28;20183;-84
2022/04/24 12:49:37;;;;;;;0.30;0.30;;;;;;;;;;5055941;28;20223;-84
2022/04/24 12:52:42;;;;;;;0.60;0.50;;;;;;;;;;5043258;28;20188;-87
2022/04/24 12:55:47;;;;;;;0.47;0.43;;;;;;;;;;5056402;28;20199;-86
2022/04/24 12:58:51;;;;;;;4.93;1.70;;;;;;;;;;5051538;28;20215;-84
2022/04/24 13:01:57;;;;;;;3.33;2.13;;;;;;;;;;5068374;28;20540;-86
2022/04/24 13:05:01;;;;;;;5.27;3.63;;;;;;;;;;5063342;28;20176;-86
2022/04/24 13:08:06;;;;;;;7.77;4.23;;;;;;;;;;5052732;28;20215;-86
2022/04/24 13:11:10;;;;;;;7.57;3.90;;;;;;;;;;5053318;28;20635;-84
2022/04/24 13:14:14;;;;;;;2.80;1.50;;;;;;;;;;5055988;28;20171;-84
2022/04/24 13:20:43;;;;;;;5.23;2.80;;;;;;;;;;5077182;28;20211;-87
2022/04/24 13:23:48;;;;;;;8.33;4.47;;;;;;;;;;5064677;28;20180;-86
2022/04/24 13:26:53;;;;;;;11.10;6.40;;;;;;;;;;5075485;28;20199;-86
2022/04/24 13:29:57;;;;;;;18.53;9.60;;;;;;;;;;5073945;28;20184;-87
2022/04/24 13:33:01;;;;;;;3.77;1.83;;;;;;;;;;5049990;28;20317;-84
2022/04/24 13:36:06;;;;;;;31.37;13.40;;;;;;;;;;5063200;28;20183;-86
2022/04/24 13:39:11;;;;;;;2.83;1.60;;;;;;;;;;5043724;28;20235;-86
2022/04/24 13:42:15;;;;;;;2.07;1.90;;;;;;;;;;5030583;28;20173;-87
2022/04/24 13:45:19;;;;;;;1.63;1.03;;;;;;;;;;5054683;28;20636;-83
2022/04/24 13:48:24;;;;;;;0.67;0.50;;;;;;;;;;5043280;28;20208;-84
2022/04/24 13:51:28;;;;;;;0.60;0.50;;;;;;;;;;5049074;28;20179;-83
2022/04/24 13:54:32;;;;;;;1.77;1.03;;;;;;;;;;5074285;28;20187;-83
2022/04/24 13:57:37;;;;;;;0.77;0.73;;;;;;;;;;5071404;28;20183;-84
2022/04/24 14:00:42;;;;;;;0.90;0.70;;;;;;;;;;5063156;28;20211;-87
2022/04/24 14:03:46;;;;;;;2.97;1.00;;;;;;;;;;5076149;28;20195;-86
2022/04/24 14:06:50;;;;;;;2.93;0.80;;;;;;;;;;5053987;28;20192;-84
2022/04/24 14:09:54;;;;;;;1.17;0.73;;;;;;;;;;5054771;28;20180;-83
2022/04/24 14:12:59;;;;;;;1.10;0.83;;;;;;;;;;5070513;28;20191;-84
2022/04/24 14:16:05;;;;;;;1.67;0.70;;;;;;;;;;5043571;28;20176;-85
2022/04/24 14:19:09;;;;;;;1.47;0.93;;;;;;;;;;5052714;28;20216;-86
2022/04/24 14:22:13;;;;;;;2.03;0.80;;;;;;;;;;5050641;28;20540;-87
2022/04/24 14:25:18;;;;;;;1.03;0.90;;;;;;;;;;5073808;28;20183;-86
2022/04/24 14:28:24;;;;;;;1.00;0.90;;;;;;;;;;5049637;28;20210;-86
2022/04/24 14:31:28;;;;;;;1.10;0.80;;;;;;;;;;5062183;28;20203;-86
2022/04/24 14:34:34;;;;;;;2.20;1.23;;;;;;;;;;5073501;28;20199;-83
2022/04/24 14:37:38;;;;;;;0.87;0.70;;;;;;;;;;5073547;28;20195;-83
2022/04/24 14:40:42;;;;;;;0.77;0.60;;;;;;;;;;5076186;28;20200;-84
2022/04/24 14:43:47;;;;;;;0.50;0.50;;;;;;;;;;5075694;28;20631;-85
2022/04/24 14:56:59;;;;;;;0.57;0.40;;;;;;;;;;5062618;28;20187;-87
2022/04/24 15:00:05;;;;;;;1.30;0.37;;;;;;;;;;5062235;28;20634;-86
2022/04/24 15:03:11;;;;;;;1.90;0.50;;;;;;;;;;5072530;28;20183;-86
2022/04/24 15:06:15;;;;;;;0.73;0.37;;;;;;;;;;5061724;28;20179;-83
2022/04/24 15:09:20;;;;;;;0.50;0.30;;;;;;;;;;5050195;28;20214;-83
2022/04/24 15:12:24;;;;;;;0.40;0.40;;;;;;;;;;5063646;28;20188;-84
2022/04/24 15:15:29;;;;;;;0.40;0.40;;;;;;;;;;5051699;28;20199;-84
2022/04/24 15:18:33;;;;;;;0.30;0.30;;;;;;;;;;5071326;28;20211;-84
2022/04/24 15:21:37;;;;;;;0.50;0.50;;;;;;;;;;5050359;28;20207;-83
2022/04/24 15:24:42;;;;;;;0.63;0.33;;;;;;;;;;5062432;28;20646;-83
2022/04/24 15:27:47;;;;;;;1.00;0.80;;;;;;;;;;5074137;28;20219;-86
2022/04/24 15:30:51;;;;;;;1.90;1.30;;;;;;;;;;5033583;28;20647;-86
2022/04/24 15:33:57;;;;;;;2.87;2.00;;;;;;;;;;5053042;28;20173;-82
2022/04/24 15:37:02;;;;;;;20.60;17.40;;;;;;;;;;5053071;28;20176;-83
2022/04/24 15:40:09;;;;;;;3.13;2.83;;;;;;;;;;5042870;28;20179;-83
2022/04/24 15:43:12;;;;;;;2.20;1.23;;;;;;;;;;5067023;28;20183;-83
2022/04/24 15:46:17;;;;;;;1.20;1.10;;;;;;;;;;5073284;28;20176;-83
2022/04/24 15:49:21;;;;;;;1.07;0.70;;;;;;;;;;5061727;28;20211;-83
2022/04/24 15:52:27;;;;;;;0.77;0.67;;;;;;;;;;5051089;28;20172;-85
2022/04/24 15:55:34;;;;;;;0.60;0.50;;;;;;;;;;5050685;28;20786;-86
2022/04/24 15:58:39;;;;;;;0.97;0.60;;;;;;;;;;5054175;28;20211;-86
2022/04/24 16:01:43;;;;;;;1.57;1.17;;;;;;;;;;5064722;28;20208;-86
2022/04/24 16:04:47;;;;;;;0.80;0.70;;;;;;;;;;5066720;28;20175;-83
2022/04/24 16:07:52;;;;;;;11.57;8.00;;;;;;;;;;5069045;28;20215;-83
2022/04/24 16:10:57;;;;;;;1.43;1.30;;;;;;;;;;5046197;28;20173;-86
2022/04/24 16:14:01;;;;;;;1.87;1.03;;;;;;;;;;5075964;28;20654;-86
2022/04/24 16:17:05;;;;;;;1.50;1.20;;;;;;;;;;5067197;28;20191;-83
2022/04/24 16:20:12;;;;;;;0.90;0.80;;;;;;;;;;5075760;28;20635;-86
2022/04/24 16:23:16;;;;;;;0.57;0.50;;;;;;;;;;5044193;28;20531;-87
2022/04/24 16:26:20;;;;;;;0.60;0.40;;;;;;;;;;5055369;28;20199;-84
2022/04/24 16:32:48;;;;;;;0.40;0.40;;;;;;;;;;5069533;28;20203;-84
2022/04/24 16:35:52;;;;;;;2.73;0.60;;;;;;;;;;5070341;28;20199;-85
2022/04/24 16:38:57;;;;;;;0.40;0.40;;;;;;;;;;5055256;28;20214;-85
2022/04/24 16:42:01;;;;;;;0.63;0.47;;;;;;;;;;5075435;28;20211;-85
2022/04/24 16:45:06;;;;;;;0.70;0.67;;;;;;;;;;5078514;28;20535;-84
2022/04/24 16:48:12;;;;;;;1.10;0.60;;;;;;;;;;5053780;28;20215;-86
2022/04/24 17:01:24;;;;;;;0.63;0.50;;;;;;;;;;5075605;28;20643;-87
2022/04/24 17:04:28;;;;;;;2.00;0.60;;;;;;;;;;5051529;28;20179;-85
2022/04/24 17:07:33;;;;;;;0.80;0.57;;;;;;;;;;5053600;28;20650;-84
2022/04/24 17:10:38;;;;;;;1.27;0.60;;;;;;;;;;5052648;28;20175;-84
2022/04/24 17:13:42;;;;;;;1.00;0.90;;;;;;;;;;5063552;28;20187;-86
2022/04/24 17:16:47;;;;;;;0.50;0.50;;;;;;;;;;5057233;28;20199;-84
2022/04/24 17:19:51;;;;;;;1.43;0.50;;;;;;;;;;5046037;28;20188;-84
2022/04/24 17:22:59;;;;;;;2.23;0.60;;;;;;;;;;5036179;28;20211;-86
2022/04/24 17:26:04;;;;;;;0.83;0.60;;;;;;;;;;5065572;28;20177;-86
2022/04/24 17:29:08;;;;;;;1.00;0.77;;;;;;;;;;5072915;28;20215;-83
2022/04/24 17:32:14;;;;;;;0.80;0.53;;;;;;;;;;5074925;28;20195;-86
2022/04/24 17:35:21;;;;;;;1.10;1.00;;;;;;;;;;5066733;28;20623;-84
2022/04/24 17:38:25;;;;;;;1.17;0.90;;;;;;;;;;5054379;28;20211;-86
2022/04/24 17:41:32;;;;;;;0.50;0.50;;;;;;;;;;5051621;28;20207;-87
2022/04/24 17:44:37;;;;;;;0.60;0.60;;;;;;;;;;5065135;28;20196;-84
2022/04/24 17:47:42;;;;;;;0.70;0.60;;;;;;;;;;5053875;28;20207;-84
2022/04/24 17:50:47;;;;;;;1.00;0.70;;;;;;;;;;5056154;28;20627;-83
2022/04/24 17:53:52;;;;;;;0.67;0.57;;;;;;;;;;5076518;28;20184;-83
2022/04/24 17:56:57;;;;;;;1.70;0.80;;;;;;;;;;5056050;28;20200;-84
2022/04/24 18:00:01;;;;;;;0.70;0.60;;;;;;;;;;5044695;28;20200;-83
2022/04/24 18:03:05;;;;;;;0.50;0.50;;;;;;;;;;5045248;28;20203;-87
2022/04/24 18:06:09;;;;;;;0.80;0.60;;;;;;;;;;5075701;28;20187;-84
2022/04/24 18:09:14;;;;;;;0.60;0.57;;;;;;;;;;5064766;28;20682;-87
2022/04/24 18:12:19;;;;;;;0.97;0.87;;;;;;;;;;5064943;28;20191;-84
2022/04/24 18:15:25;;;;;;;0.93;0.80;;;;;;;;;;5079953;28;20530;-86
2022/04/24 18:18:34;;;;;;;2.03;1.50;;;;;;;;;;5051331;28;20207;-86
2022/04/24 18:21:39;;;;;;;1.10;1.00;;;;;;;;;;5062924;28;20207;-83
2022/04/24 18:24:44;;;;;;;1.93;1.07;;;;;;;;;;5075739;28;20195;-87
2022/04/24 18:27:48;;;;;;;0.60;0.60;;;;;;;;;;5051821;28;20220;-83
2022/04/24 18:30:53;;;;;;;2.50;0.90;;;;;;;;;;5074675;28;20671;-87
2022/04/24 18:33:57;;;;;;;1.30;1.10;;;;;;;;;;5054824;28;20196;-87
2022/04/24 18:40:24;;;;;;;1.40;0.77;;;;;;;;;;5056135;28;20516;-85
2022/04/24 18:43:28;;;;;;;0.60;0.60;;;;;;;;;;5043919;28;20211;-84
2022/04/24 18:46:33;;;;;;;1.03;0.60;;;;;;;;;;5063561;28;20179;-84
2022/04/24 18:49:37;;;;;;;1.53;0.60;;;;;;;;;;5064782;28;20577;-87